コペンハーゲン の空港の天気 - METARとTAF

コペンハーゲン国際空港 ( EKCH / CPH ) - デンマーク コペンハーゲン
飛行場実況気象(Metar)
観測時間09/25 01:50 CEST (09/24 23:50 UTC)
風向・風速西 6m/s
視程10km以上
天気現象
全天を覆う雲 雲底高度 460m
気温16℃
湿度88%
気圧1006hPa
METAREKCH 242350Z AUTO 27011KT 9999 OVC015/// 16/14 Q1006 TEMPO BKN012
過去の天気等 Google飛行場航空写真 Wunderground天気予報

過去48時間のMETAR

飛行場予報(TAF)
発表時間: 9/25 01:03 CEST (9/24 23:03 UTC)
予報対象時間: 25日2時 CEST ~ 26日2時 CEST
風向・風速西 6m/s
視程10km以上
全天の4割程度の雲 雲底高度 370m
全天の8割程度の雲 雲底高度 910m
25日2時 CEST ~ 25日5時 CEST に一時的に
全天の8割程度の雲 雲底高度 370m
TAF EKCH 242303Z 2500/2524 27012KT 9999 SCT012 BKN030
TEMPO 2500/2503 BKN012